Metar GG30 METAR message from awiacja.imgw.pl Metar G30 EPLL METAR EPLL 240430Z 10006KT 070V140 0300 R25/1000N FG VV001 11/11 Q1015 =